Time;durP1;ratioP1;P1;durP2;ratioP2;P2;SDS_P1;SDS_P2;PMS_P1;PMS_P2;Temp;Humidity;BMP_temperature;BMP_pressure;BME280_temperature;BME280_humidity;BME280_pressure;Samples;Min_cycle;Max_cycle;Signal;HPM_P1;HPM_P2
2021/10/27 00:01:03;;;;;;;10.83;10.33;;;13.80;99.90;;;;;;5032819;28;20476;-63
2021/10/27 00:03:31;;;;;;;10.30;9.90;;;13.80;99.90;;;;;;5033753;28;20460;-63
2021/10/27 00:05:58;;;;;;;9.87;9.50;;;13.80;99.90;;;;;;5038791;28;20799;-61
2021/10/27 00:08:25;;;;;;;9.67;9.17;;;13.80;99.90;;;;;;5052423;28;20467;-64
2021/10/27 00:10:52;;;;;;;9.53;9.20;;;13.80;99.90;;;;;;5052548;28;20436;-63
2021/10/27 00:13:20;;;;;;;11.07;10.43;;;13.80;99.90;;;;;;5052529;28;20567;-63
2021/10/27 00:15:46;;;;;;;10.50;10.10;;;13.80;99.90;;;;;;5052283;28;20872;-61
2021/10/27 00:18:14;;;;;;;10.93;10.43;;;13.80;99.90;;;;;;5052050;28;21183;-63
2021/10/27 00:20:42;;;;;;;10.80;10.30;;;13.80;99.90;;;;;;5050901;28;20480;-63
2021/10/27 00:23:08;;;;;;;11.60;11.00;;;13.80;99.90;;;;;;5052330;28;20463;-63
2021/10/27 00:25:35;;;;;;;10.40;9.90;;;13.80;99.90;;;;;;5052495;28;20510;-62
2021/10/27 00:28:02;;;;;;;11.10;10.30;;;13.90;99.90;;;;;;5052206;28;20922;-63
2021/10/27 00:30:29;;;;;;;11.30;10.80;;;13.90;99.90;;;;;;5052175;28;20440;-63
2021/10/27 00:32:57;;;;;;;11.00;10.50;;;13.90;99.90;;;;;;5052185;28;20818;-62
2021/10/27 00:35:24;;;;;;;11.00;10.40;;;13.80;99.90;;;;;;5050497;28;20483;-62
2021/10/27 00:37:52;;;;;;;10.07;9.40;;;13.80;99.90;;;;;;5051899;28;20440;-62
2021/10/27 00:40:19;;;;;;;10.83;10.23;;;13.80;99.90;;;;;;5052138;28;20452;-63
2021/10/27 00:42:45;;;;;;;10.70;9.90;;;13.80;99.90;;;;;;5052079;28;20876;-62
2021/10/27 00:45:12;;;;;;;10.57;10.07;;;13.80;99.90;;;;;;5051985;28;20451;-62
2021/10/27 00:47:39;;;;;;;10.17;9.63;;;13.80;99.90;;;;;;5052082;28;20809;-62
2021/10/27 00:50:06;;;;;;;10.27;9.73;;;13.80;99.90;;;;;;5051766;28;20451;-63
2021/10/27 00:52:33;;;;;;;10.70;10.10;;;13.80;99.90;;;;;;5042563;28;20433;-63
2021/10/27 00:55:01;;;;;;;10.90;10.27;;;13.80;99.90;;;;;;5032107;28;20957;-63
2021/10/27 00:57:28;;;;;;;10.53;9.83;;;13.80;99.90;;;;;;5031945;28;20449;-62
2021/10/27 00:59:57;;;;;;;10.80;10.20;;;13.80;99.90;;;;;;5031731;28;20448;-63
2021/10/27 01:02:24;;;;;;;10.27;9.83;;;13.80;99.90;;;;;;5031785;28;20485;-63
2021/10/27 01:04:50;;;;;;;11.20;10.30;;;13.70;99.90;;;;;;5031712;28;20838;-63
2021/10/27 01:07:17;;;;;;;10.77;10.17;;;13.70;99.90;;;;;;5032873;28;20449;-63
2021/10/27 01:09:45;;;;;;;10.27;9.67;;;13.70;99.90;;;;;;5031690;28;20452;-63
2021/10/27 01:12:13;;;;;;;9.63;9.23;;;13.70;99.90;;;;;;5031713;28;20444;-63
2021/10/27 01:14:41;;;;;;;10.53;9.97;;;13.70;99.90;;;;;;5031597;28;20830;-63
2021/10/27 01:17:10;;;;;;;10.70;9.80;;;13.70;99.90;;;;;;5031706;28;20517;-63
2021/10/27 01:19:45;;;;;;;10.23;9.73;;;13.70;99.90;;;;;;5031466;28;20449;-63
2021/10/27 01:22:12;;;;;;;11.33;10.53;;;13.70;99.90;;;;;;5031649;28;20480;-63
2021/10/27 01:24:39;;;;;;;11.13;10.43;;;13.70;99.90;;;;;;5032810;28;20473;-63
2021/10/27 01:27:06;;;;;;;10.47;9.87;;;13.80;99.90;;;;;;5035259;28;20456;-63
2021/10/27 01:29:33;;;;;;;11.60;10.77;;;13.70;99.90;;;;;;5035613;28;20444;-62
2021/10/27 01:32:00;;;;;;;10.63;10.03;;;13.70;99.90;;;;;;5035681;28;20441;-63
2021/10/27 01:34:26;;;;;;;10.77;10.27;;;13.80;99.90;;;;;;5035524;28;20836;-62
2021/10/27 01:36:54;;;;;;;11.47;10.77;;;13.80;99.90;;;;;;5035721;28;20452;-63
2021/10/27 01:39:21;;;;;;;10.60;10.10;;;13.80;99.90;;;;;;5036539;28;20464;-63
2021/10/27 01:41:48;;;;;;;10.50;9.73;;;13.80;99.90;;;;;;5035291;28;20481;-63
2021/10/27 01:44:15;;;;;;;11.07;10.33;;;13.80;99.90;;;;;;5035442;28;20468;-64
2021/10/27 01:46:42;;;;;;;11.27;10.67;;;13.80;99.90;;;;;;5035397;28;20792;-63
2021/10/27 01:49:11;;;;;;;11.77;11.00;;;13.80;99.90;;;;;;5035301;28;20453;-63
2021/10/27 01:51:38;;;;;;;10.80;10.00;;;13.80;99.90;;;;;;5035494;28;20464;-63
2021/10/27 01:54:07;;;;;;;12.03;11.20;;;13.90;99.90;;;;;;5035004;28;20473;-62
2021/10/27 01:56:35;;;;;;;11.50;10.90;;;13.90;99.90;;;;;;5036263;28;20448;-63
2021/10/27 01:59:02;;;;;;;10.87;10.17;;;13.90;99.90;;;;;;5035048;28;20476;-63
2021/10/27 02:01:29;;;;;;;11.00;10.50;;;13.90;99.90;;;;;;5034914;28;20489;-62
2021/10/27 02:03:56;;;;;;;10.97;10.30;;;13.90;99.90;;;;;;5035008;28;20985;-61
2021/10/27 02:06:22;;;;;;;12.13;11.13;;;13.80;99.90;;;;;;5035199;28;20872;-63
2021/10/27 02:08:49;;;;;;;11.30;10.63;;;13.90;99.90;;;;;;5034829;28;20488;-62
2021/10/27 02:11:17;;;;;;;12.30;11.60;;;13.90;99.90;;;;;;5036267;28;20456;-62
2021/10/27 02:13:44;;;;;;;11.30;10.60;;;13.90;99.90;;;;;;5034887;28;20465;-63
2021/10/27 02:16:11;;;;;;;11.50;10.80;;;13.90;99.90;;;;;;5036425;28;20448;-63
2021/10/27 02:18:38;;;;;;;12.83;11.60;;;13.90;99.90;;;;;;5054636;28;20440;-62
2021/10/27 02:21:05;;;;;;;12.13;11.37;;;13.90;99.90;;;;;;5054591;28;21313;-63
2021/10/27 02:23:32;;;;;;;11.63;10.80;;;13.90;99.90;;;;;;5054575;28;20464;-62
2021/10/27 02:25:58;;;;;;;11.93;11.23;;;13.90;99.90;;;;;;5054648;28;20448;-62
2021/10/27 02:28:26;;;;;;;10.97;10.27;;;13.90;99.90;;;;;;5038884;28;20452;-63
2021/10/27 02:30:53;;;;;;;10.80;10.13;;;13.90;99.90;;;;;;5034500;28;20441;-63
2021/10/27 02:33:20;;;;;;;12.30;11.47;;;13.90;99.90;;;;;;5034515;28;20476;-63
2021/10/27 02:35:47;;;;;;;12.03;10.90;;;13.90;99.90;;;;;;5034427;28;20460;-63
2021/10/27 02:38:13;;;;;;;11.50;10.70;;;13.90;99.90;;;;;;5034187;28;20444;-63
2021/10/27 02:40:40;;;;;;;12.60;11.80;;;13.90;99.90;;;;;;5034430;28;20449;-63
2021/10/27 02:43:07;;;;;;;11.90;11.13;;;13.90;99.90;;;;;;5035313;28;20852;-63
2021/10/27 02:45:35;;;;;;;12.60;11.60;;;13.90;99.90;;;;;;5034290;28;20456;-62
2021/10/27 02:48:02;;;;;;;11.30;10.70;;;13.90;99.90;;;;;;5034248;28;20452;-62
2021/10/27 02:50:28;;;;;;;11.87;11.20;;;13.90;99.90;;;;;;5034240;28;20448;-62
2021/10/27 02:52:55;;;;;;;12.47;11.43;;;13.90;99.90;;;;;;5033925;28;20468;-63
2021/10/27 02:55:22;;;;;;;11.20;10.57;;;13.90;99.90;;;;;;5034172;28;20934;-63
2021/10/27 02:57:48;;;;;;;11.40;10.50;;;13.90;99.90;;;;;;5033899;28;20453;-63
2021/10/27 03:00:15;;;;;;;10.30;9.80;;;13.80;99.90;;;;;;5035055;28;20445;-63
2021/10/27 03:02:43;;;;;;;10.60;10.10;;;13.80;99.90;;;;;;5033834;28;20484;-63
2021/10/27 03:05:10;;;;;;;11.43;10.43;;;13.80;99.90;;;;;;5033913;28;20457;-63
2021/10/27 03:07:37;;;;;;;10.60;9.80;;;13.80;99.90;;;;;;5033870;28;20452;-62
2021/10/27 03:10:04;;;;;;;11.20;10.50;;;13.80;99.90;;;;;;5033744;28;20931;-60
2021/10/27 03:12:31;;;;;;;10.27;9.77;;;13.70;99.90;;;;;;5033694;28;20452;-62
2021/10/27 03:14:57;;;;;;;10.63;10.00;;;13.70;99.90;;;;;;5034811;28;20952;-62
2021/10/27 03:17:24;;;;;;;10.80;10.30;;;13.70;99.90;;;;;;5033852;28;20456;-62
2021/10/27 03:19:52;;;;;;;11.33;10.47;;;13.70;99.90;;;;;;5033503;28;20449;-62
2021/10/27 03:22:19;;;;;;;11.57;10.87;;;13.70;99.90;;;;;;5033568;28;20564;-63
2021/10/27 03:24:46;;;;;;;10.67;10.03;;;13.70;99.90;;;;;;5033514;28;20468;-60
2021/10/27 03:27:13;;;;;;;11.70;11.00;;;13.70;99.90;;;;;;5033480;28;20953;-62
2021/10/27 03:29:40;;;;;;;12.00;11.10;;;13.70;99.90;;;;;;5033426;28;20446;-63
2021/10/27 03:32:07;;;;;;;12.80;12.00;;;13.70;99.90;;;;;;5034444;28;20441;-63
2021/10/27 03:34:34;;;;;;;13.47;12.57;;;13.70;99.90;;;;;;5033385;28;20554;-63
2021/10/27 03:37:02;;;;;;;14.53;13.23;;;13.60;99.90;;;;;;5033362;28;20467;-62
2021/10/27 03:39:29;;;;;;;13.60;12.70;;;13.70;99.90;;;;;;5033149;28;20511;-64
2021/10/27 03:41:56;;;;;;;13.30;12.03;;;13.70;99.90;;;;;;5033259;28;20473;-63
2021/10/27 03:44:23;;;;;;;15.53;13.80;;;13.60;99.90;;;;;;5033268;28;20487;-62
2021/10/27 03:46:51;;;;;;;13.83;13.03;;;13.70;99.90;;;;;;5036623;28;20449;-62
2021/10/27 03:49:18;;;;;;;13.07;12.27;;;13.70;99.90;;;;;;5032371;28;20558;-61
2021/10/27 03:51:45;;;;;;;13.70;12.77;;;13.70;99.90;;;;;;5033158;28;20433;-62
2021/10/27 03:54:13;;;;;;;12.60;12.10;;;13.70;99.90;;;;;;5033043;28;20979;-62
2021/10/27 03:56:40;;;;;;;13.63;12.70;;;13.60;99.90;;;;;;5033002;28;20944;-63
2021/10/27 03:59:07;;;;;;;12.80;12.17;;;13.70;99.90;;;;;;5032731;28;20455;-62
2021/10/27 04:01:34;;;;;;;13.77;12.97;;;13.70;99.90;;;;;;5033068;28;20484;-61
2021/10/27 04:04:01;;;;;;;13.30;12.37;;;13.60;99.90;;;;;;5032780;28;20465;-62
2021/10/27 04:06:27;;;;;;;13.87;13.17;;;13.60;99.90;;;;;;5032784;28;20540;-62
2021/10/27 04:08:54;;;;;;;14.90;14.00;;;13.60;99.90;;;;;;5032438;28;20449;-62
2021/10/27 04:11:22;;;;;;;13.90;13.10;;;13.60;99.90;;;;;;5032815;28;20499;-62
2021/10/27 04:13:49;;;;;;;14.53;13.83;;;13.60;99.90;;;;;;5032425;28;20473;-62
2021/10/27 04:16:16;;;;;;;16.53;15.43;;;13.60;99.90;;;;;;5036884;28;20471;-62
2021/10/27 04:18:43;;;;;;;18.60;17.10;;;13.60;99.90;;;;;;5052390;28;20447;-62
2021/10/27 04:21:10;;;;;;;15.67;14.60;;;13.60;99.90;;;;;;5052074;28;20452;-62
2021/10/27 04:23:36;;;;;;;17.00;15.50;;;13.60;99.90;;;;;;5051842;28;21086;-61
2021/10/27 04:26:03;;;;;;;16.40;15.30;;;13.60;99.90;;;;;;5051967;28;20440;-61
2021/10/27 04:28:31;;;;;;;16.70;15.70;;;13.60;99.90;;;;;;5051708;28;20448;-62
2021/10/27 04:31:01;;;;;;;16.43;15.43;;;13.60;99.90;;;;;;5052070;28;20444;-62
2021/10/27 04:33:28;;;;;;;17.63;16.50;;;13.60;99.90;;;;;;5050314;28;20464;-61
2021/10/27 04:35:55;;;;;;;20.20;18.60;;;13.60;99.90;;;;;;5052039;28;20443;-62
2021/10/27 04:38:22;;;;;;;18.60;16.50;;;13.70;99.90;;;;;;5051919;28;20440;-62
2021/10/27 04:40:50;;;;;;;17.70;16.50;;;13.70;99.90;;;;;;5039128;28;20459;-63
2021/10/27 04:43:17;;;;;;;18.23;17.00;;;13.70;99.90;;;;;;5031757;28;20484;-62
2021/10/27 04:45:45;;;;;;;17.53;16.43;;;13.70;99.90;;;;;;5032074;28;20445;-63
2021/10/27 04:48:13;;;;;;;16.63;15.70;;;13.70;99.90;;;;;;5031728;28;21074;-63
2021/10/27 04:50:40;;;;;;;16.40;15.30;;;13.70;99.90;;;;;;5031983;28;20835;-63
2021/10/27 04:53:13;;;;;;;16.20;14.97;;;13.70;99.90;;;;;;5031875;28;20469;-63
2021/10/27 04:55:40;;;;;;;15.83;15.03;;;13.70;99.90;;;;;;5032195;28;20441;-64
2021/10/27 04:58:07;;;;;;;15.80;14.77;;;13.60;99.90;;;;;;5031666;28;20949;-63
2021/10/27 05:00:34;;;;;;;15.80;14.80;;;13.60;99.90;;;;;;5031042;28;20444;-64
2021/10/27 05:03:02;;;;;;;15.50;14.50;;;13.60;99.90;;;;;;5031670;28;20485;-63
2021/10/27 05:05:29;;;;;;;15.17;14.17;;;13.60;99.90;;;;;;5031716;28;20817;-63
2021/10/27 05:07:57;;;;;;;15.10;14.30;;;13.60;99.90;;;;;;5031795;28;20449;-63
2021/10/27 05:10:25;;;;;;;16.27;15.20;;;13.60;99.90;;;;;;5031818;28;20453;-64
2021/10/27 05:12:51;;;;;;;14.53;13.80;;;13.60;99.90;;;;;;5031553;28;20491;-63
2021/10/27 05:15:18;;;;;;;15.23;14.50;;;13.60;99.90;;;;;;5031943;28;20444;-63
2021/10/27 05:17:45;;;;;;;16.40;15.30;;;13.60;99.90;;;;;;5031519;28;20449;-63
2021/10/27 05:20:14;;;;;;;16.87;15.60;;;13.60;99.90;;;;;;5031750;28;20437;-64
2021/10/27 05:22:40;;;;;;;15.37;14.50;;;13.60;99.90;;;;;;5031473;28;20897;-64
2021/10/27 05:25:08;;;;;;;16.07;14.90;;;13.60;99.90;;;;;;5031524;28;20449;-63
2021/10/27 05:27:36;;;;;;;16.47;15.50;;;13.60;99.90;;;;;;5031643;28;20814;-64
2021/10/27 05:30:04;;;;;;;15.27;14.17;;;13.60;99.90;;;;;;5031568;28;20476;-64
2021/10/27 05:32:30;;;;;;;16.50;15.30;;;13.60;99.90;;;;;;5031566;28;20922;-64
2021/10/27 05:34:58;;;;;;;16.50;15.60;;;13.60;99.90;;;;;;5031568;28;20445;-64
2021/10/27 05:37:26;;;;;;;15.03;14.10;;;13.60;99.90;;;;;;5031706;28;20829;-64
2021/10/27 05:39:53;;;;;;;15.57;14.67;;;13.60;99.90;;;;;;5031265;28;20445;-64
2021/10/27 05:42:21;;;;;;;17.20;15.80;;;13.60;99.90;;;;;;5031644;28;20477;-64
2021/10/27 05:44:50;;;;;;;15.00;14.20;;;13.60;99.90;;;;;;5031400;28;20441;-64
2021/10/27 05:47:17;;;;;;;15.63;14.53;;;13.60;99.90;;;;;;5031356;28;20816;-63
2021/10/27 05:49:49;;;;;;;15.57;14.40;;;13.50;99.90;;;;;;5031255;28;20445;-63
2021/10/27 05:55:22;;;;;;;14.70;13.80;;;13.50;99.90;;;;;;5038334;28;20423;-63
2021/10/27 05:57:49;;;;;;;16.30;15.40;;;13.50;99.90;;;;;;5038565;28;20453;-63
2021/10/27 06:00:16;;;;;;;14.70;13.90;;;13.50;99.90;;;;;;5038323;28;20441;-62
2021/10/27 06:02:43;;;;;;;15.10;14.27;;;13.50;99.90;;;;;;5037501;28;20480;-63
2021/10/27 06:05:10;;;;;;;16.00;15.00;;;13.50;99.90;;;;;;5038826;28;20445;-63
2021/10/27 06:07:38;;;;;;;16.30;15.30;;;13.50;99.90;;;;;;5038183;28;20460;-63
2021/10/27 06:10:07;;;;;;;14.43;13.83;;;13.50;99.90;;;;;;5037327;28;20540;-63
2021/10/27 06:12:34;;;;;;;15.17;14.37;;;13.50;99.90;;;;;;5040969;28;20449;-62
2021/10/27 06:15:01;;;;;;;15.53;14.73;;;13.50;99.90;;;;;;5043638;28;20449;-63
2021/10/27 06:17:28;;;;;;;16.70;15.90;;;13.50;99.90;;;;;;5044156;28;20449;-63
2021/10/27 06:19:54;;;;;;;16.30;15.37;;;13.50;99.90;;;;;;5044318;28;20520;-63
2021/10/27 06:22:22;;;;;;;15.80;15.00;;;13.50;99.90;;;;;;5043516;28;20557;-61
2021/10/27 06:24:49;;;;;;;15.50;14.80;;;13.40;99.90;;;;;;5041323;28;20449;-63
2021/10/27 06:27:17;;;;;;;15.47;14.67;;;13.50;99.90;;;;;;5042097;28;20459;-62
2021/10/27 06:29:46;;;;;;;16.13;14.90;;;13.50;99.90;;;;;;5041134;28;20441;-63
2021/10/27 06:32:21;;;;;;;16.03;15.10;;;13.50;99.90;;;;;;5040892;28;20457;-63
2021/10/27 06:34:51;;;;;;;15.97;15.07;;;13.50;99.90;;;;;;5042861;28;20453;-63
2021/10/27 06:37:34;;;;;;;15.50;14.90;;;13.50;99.90;;;;;;5040322;28;20467;-63
2021/10/27 06:48:17;;;;;;;16.37;15.20;;;13.50;99.90;;;;;;5043184;28;20421;-63
2021/10/27 06:50:44;;;;;;;16.40;15.27;;;13.50;99.90;;;;;;5043788;28;20951;-62
2021/10/27 06:53:11;;;;;;;17.10;15.70;;;13.60;99.90;;;;;;5043557;28;20480;-63
2021/10/27 06:55:39;;;;;;;16.60;15.80;;;13.50;99.90;;;;;;5045056;28;20445;-63
2021/10/27 06:58:09;;;;;;;15.90;15.20;;;13.60;99.90;;;;;;5044498;28;20849;-63
2021/10/27 07:00:39;;;;;;;15.90;15.10;;;13.60;99.90;;;;;;5045089;28;20467;-63
2021/10/27 07:06:05;;;;;;;17.43;16.30;;;13.70;99.90;;;;;;5032693;28;20490;-63
2021/10/27 07:16:47;;;;;;;17.20;16.27;;;13.80;99.90;;;;;;5041700;28;20424;-62
2021/10/27 07:19:14;;;;;;;16.53;15.63;;;13.80;99.90;;;;;;5041686;28;20961;-63
2021/10/27 07:21:40;;;;;;;16.40;15.70;;;13.80;99.90;;;;;;5040971;28;20452;-63
2021/10/27 07:24:07;;;;;;;17.57;16.77;;;13.90;99.90;;;;;;5040726;28;20492;-63
2021/10/27 07:26:36;;;;;;;16.20;15.40;;;13.90;99.90;;;;;;5041822;28;20453;-63
2021/10/27 07:29:06;;;;;;;16.30;15.50;;;13.90;99.90;;;;;;5041542;28;20528;-63
2021/10/27 07:31:32;;;;;;;16.20;15.40;;;13.90;99.90;;;;;;5040746;28;20479;-63
2021/10/27 07:34:06;;;;;;;16.40;15.70;;;13.90;99.90;;;;;;5041539;28;20955;-63
2021/10/27 07:39:51;;;;;;;16.83;15.60;;;13.90;99.90;;;;;;5040555;28;20460;-64
2021/10/27 07:42:14;;;;;;;17.00;15.80;;;14.00;99.90;;;;;;5039658;28;20431;-64
2021/10/27 07:44:42;;;;;;;16.27;15.57;;;14.00;99.90;;;;;;5040014;28;20800;-64
2021/10/27 07:47:09;;;;;;;16.37;15.03;;;14.00;99.90;;;;;;5038340;28;20449;-64
2021/10/27 07:49:36;;;;;;;15.23;14.53;;;14.00;99.90;;;;;;5037716;28;20774;-64
2021/10/27 07:52:03;;;;;;;16.10;15.27;;;14.00;99.90;;;;;;5038139;28;20973;-64
2021/10/27 07:54:30;;;;;;;16.30;15.20;;;14.10;99.90;;;;;;5037679;28;20484;-64
2021/10/27 07:56:56;;;;;;;16.30;15.40;;;14.10;99.90;;;;;;5037967;28;20453;-64
2021/10/27 07:59:24;;;;;;;16.20;15.30;;;14.20;99.90;;;;;;5037786;28;20449;-64
2021/10/27 08:01:52;;;;;;;16.40;15.50;;;14.20;99.90;;;;;;5038370;28;20456;-64
2021/10/27 08:04:18;;;;;;;16.73;15.70;;;14.20;99.90;;;;;;5038619;28;20865;-64
2021/10/27 08:06:47;;;;;;;16.77;15.87;;;14.30;99.90;;;;;;5038146;28;20449;-64
2021/10/27 08:09:14;;;;;;;18.10;17.13;;;14.30;99.90;;;;;;5039838;28;20449;-64
2021/10/27 08:11:41;;;;;;;16.43;15.60;;;14.30;99.90;;;;;;5041168;28;20456;-64
2021/10/27 08:14:08;;;;;;;15.57;14.90;;;14.30;99.90;;;;;;5041067;28;20861;-62
2021/10/27 08:16:35;;;;;;;16.00;15.40;;;14.30;99.90;;;;;;5041667;28;20471;-64
2021/10/27 08:19:03;;;;;;;15.90;15.20;;;14.30;99.90;;;;;;5041778;28;20445;-64
2021/10/27 08:21:30;;;;;;;17.40;16.27;;;14.30;99.90;;;;;;5042203;28;20473;-64
2021/10/27 08:23:57;;;;;;;16.60;15.50;;;14.40;99.90;;;;;;5041339;28;20488;-64
2021/10/27 08:26:26;;;;;;;16.13;15.33;;;14.40;99.90;;;;;;5041629;28;20448;-64
2021/10/27 08:28:56;;;;;;;16.40;15.70;;;14.50;99.90;;;;;;5042663;28;20815;-64
2021/10/27 08:34:15;;;;;;;17.40;16.30;;;14.50;99.90;;;;;;5042365;28;20499;-64
2021/10/27 08:36:42;;;;;;;16.73;15.93;;;14.60;99.90;;;;;;5041463;28;20476;-64
2021/10/27 08:39:09;;;;;;;17.50;16.40;;;14.60;99.90;;;;;;5041084;28;20952;-64
2021/10/27 08:41:38;;;;;;;17.40;16.40;;;14.70;99.90;;;;;;5040745;28;20441;-64
2021/10/27 08:44:05;;;;;;;17.13;16.23;;;14.70;99.90;;;;;;5042144;28;20491;-64
2021/10/27 08:46:35;;;;;;;17.30;16.50;;;14.80;99.90;;;;;;5042127;28;20468;-64
2021/10/27 08:49:04;;;;;;;16.70;15.70;;;14.80;99.90;;;;;;5041171;28;20452;-64
2021/10/27 08:51:34;;;;;;;16.83;16.03;;;14.90;99.90;;;;;;5040008;28;20453;-64
2021/10/27 08:54:03;;;;;;;17.20;16.23;;;14.90;99.90;;;;;;5041872;28;20519;-64
2021/10/27 08:56:30;;;;;;;16.97;16.27;;;14.90;99.90;;;;;;5042090;28;20449;-64
2021/10/27 08:59:04;;;;;;;17.50;16.30;;;15.00;99.90;;;;;;5042754;28;20456;-64
2021/10/27 09:01:39;;;;;;;20.13;18.83;;;15.00;99.90;;;;;;5039147;28;20480;-64
2021/10/27 09:10:21;;;;;;;16.80;15.77;;;15.20;99.90;;;;;;5033021;28;20747;-63
2021/10/27 09:15:54;;;;;;;17.63;16.80;;;15.20;99.90;;;;;;5038363;28;20429;-64
2021/10/27 09:35:45;;;;;;;19.03;18.17;;;15.40;99.90;;;;;;5040460;28;20448;-64
2021/10/27 09:41:48;;;;;;;17.20;16.30;;;15.40;99.90;;;;;;5041216;28;20423;-64
2021/10/27 09:44:37;;;;;;;19.03;18.13;;;15.50;99.90;;;;;;5041007;28;20480;-64
2021/10/27 09:47:30;;;;;;;17.90;16.90;;;15.50;99.90;;;;;;5042918;28;20477;-64
2021/10/27 10:04:07;;;;;;;19.40;18.40;;;16.50;99.90;;;;;;5030216;28;20488;-62
2021/10/27 10:06:37;;;;;;;18.77;17.50;;;16.90;99.90;;;;;;5042229;28;20448;-63
2021/10/27 10:09:04;;;;;;;19.33;18.27;;;17.20;99.90;;;;;;5042494;28;20448;-63
2021/10/27 10:11:32;;;;;;;18.33;17.53;;;17.60;99.90;;;;;;5043453;28;20449;-63
2021/10/27 10:14:02;;;;;;;18.70;17.80;;;17.80;99.90;;;;;;5044548;28;20801;-62
2021/10/27 10:16:30;;;;;;;18.60;17.70;;;17.90;99.90;;;;;;5060992;28;20571;-63
2021/10/27 10:18:59;;;;;;;19.60;18.60;;;18.30;99.90;;;;;;5063626;28;20535;-63
2021/10/27 10:21:28;;;;;;;18.77;17.90;;;18.50;99.90;;;;;;5065180;28;20444;-63
2021/10/27 10:24:30;;;;;;;19.03;18.23;;;18.70;99.90;;;;;;5061356;28;21458;-61
2021/10/27 10:26:59;;;;;;;20.00;19.10;;;18.90;99.90;;;;;;5040190;28;20475;-63
2021/10/27 10:29:49;;;;;;;19.93;18.80;;;19.10;99.90;;;;;;5039931;28;20470;-63
2021/10/27 10:32:31;;;;;;;20.10;19.10;;;19.20;99.90;;;;;;5040164;28;20443;-63
2021/10/27 10:35:02;;;;;;;20.27;19.40;;;19.20;99.90;;;;;;5048427;28;20436;-62
2021/10/27 10:37:33;;;;;;;19.87;18.90;;;19.50;99.90;;;;;;5059400;28;20450;-63
2021/10/27 10:40:07;;;;;;;19.53;18.83;;;19.50;99.90;;;;;;5060369;28;20987;-63
2021/10/27 10:42:55;;;;;;;20.53;19.33;;;19.50;99.90;;;;;;5060181;28;20956;-63
2021/10/27 11:03:43;;;;;;;22.70;21.70;;;20.40;99.90;;;;;;5031492;28;20544;-63
2021/10/27 11:23:18;;;;;;;22.53;21.10;;;22.60;93.60;;;;;;5033061;28;20456;-63
2021/10/27 11:37:30;;;;;;;20.67;19.87;;;26.20;76.40;;;;;;5061783;28;20923;-63
2021/10/27 11:40:07;;;;;;;21.80;20.90;;;27.20;70.10;;;;;;5059134;28;20484;-63
2021/10/27 11:42:44;;;;;;;23.57;22.47;;;27.80;63.90;;;;;;5058509;28;20440;-63
2021/10/27 11:45:16;;;;;;;22.47;21.47;;;28.30;60.40;;;;;;5057131;28;20483;-63
2021/10/27 11:47:46;;;;;;;20.53;19.77;;;28.70;57.00;;;;;;5058085;28;20797;-63
2021/10/27 11:50:16;;;;;;;21.80;20.90;;;28.90;55.80;;;;;;5058922;28;20448;-63
2021/10/27 11:52:45;;;;;;;21.33;20.63;;;28.60;54.30;;;;;;5059860;28;20455;-64
2021/10/27 11:55:14;;;;;;;22.70;21.70;;;27.80;54.00;;;;;;5060410;28;20440;-63
2021/10/27 11:57:42;;;;;;;21.50;20.60;;;27.40;55.50;;;;;;5059952;28;20452;-63
2021/10/27 12:00:22;;;;;;;21.10;20.30;;;27.00;55.50;;;;;;5058225;28;20502;-63
2021/10/27 12:02:52;;;;;;;22.70;21.67;;;27.00;56.20;;;;;;5058994;28;20479;-63
2021/10/27 12:05:27;;;;;;;22.03;21.10;;;27.00;56.00;;;;;;5058885;28;20486;-63
2021/10/27 12:11:04;;;;;;;22.63;21.63;;;26.40;57.20;;;;;;5059124;28;20435;-63
2021/10/27 12:13:51;;;;;;;21.90;21.00;;;27.40;56.20;;;;;;5060306;28;20464;-63
2021/10/27 12:16:37;;;;;;;22.40;21.37;;;27.60;55.20;;;;;;5060614;28;20452;-63
2021/10/27 12:19:06;;;;;;;20.60;19.80;;;28.00;54.70;;;;;;5060660;28;20471;-63
2021/10/27 12:21:34;;;;;;;21.37;20.57;;;26.70;55.10;;;;;;5060669;28;20467;-63
2021/10/27 12:24:02;;;;;;;21.53;20.70;;;25.90;56.50;;;;;;5058239;28;20989;-63
2021/10/27 12:26:44;;;;;;;22.80;21.90;;;25.20;58.10;;;;;;5057131;28;20455;-63
2021/10/27 12:29:12;;;;;;;21.63;20.67;;;24.20;59.50;;;;;;5057069;28;20472;-63
2021/10/27 12:31:40;;;;;;;21.97;20.97;;;23.60;62.30;;;;;;5056840;28;20459;-63
2021/10/27 12:34:26;;;;;;;21.60;20.70;;;23.00;66.00;;;;;;5056498;28;20460;-63
2021/10/27 12:36:56;;;;;;;21.30;20.40;;;24.90;66.10;;;;;;5055864;28;20539;-63
2021/10/27 12:39:28;;;;;;;21.87;20.97;;;24.90;62.50;;;;;;5056264;28;20448;-63
2021/10/27 12:42:03;;;;;;;22.27;21.37;;;24.90;63.10;;;;;;5056088;28;20454;-63
2021/10/27 12:44:31;;;;;;;22.07;21.00;;;25.00;62.50;;;;;;5055810;28;20488;-63
2021/10/27 12:47:09;;;;;;;22.23;21.13;;;25.40;62.00;;;;;;5056345;28;20437;-63
2021/10/27 12:49:35;;;;;;;23.20;22.10;;;25.60;60.90;;;;;;5057302;28;20946;-63
2021/10/27 12:52:36;;;;;;;21.90;21.00;;;25.40;61.30;;;;;;5058832;28;20440;-62
2021/10/27 12:55:18;;;;;;;21.33;20.53;;;25.90;60.40;;;;;;5060700;28;20519;-63
2021/10/27 12:58:03;;;;;;;21.40;20.60;;;25.80;59.30;;;;;;5057792;28;20440;-63
2021/10/27 13:00:46;;;;;;;21.77;20.77;;;25.60;59.80;;;;;;5057987;28;20475;-63
2021/10/27 13:03:30;;;;;;;23.20;22.10;;;25.40;61.20;;;;;;5059056;28;20495;-63
2021/10/27 13:06:04;;;;;;;23.53;22.53;;;24.70;61.80;;;;;;5058641;28;20432;-63
2021/10/27 13:08:51;;;;;;;22.03;21.17;;;24.50;63.50;;;;;;5058499;28;21145;-63
2021/10/27 13:11:35;;;;;;;22.10;21.10;;;24.40;65.00;;;;;;5058453;28;20451;-63
2021/10/27 13:14:11;;;;;;;22.23;21.23;;;24.20;66.30;;;;;;5058170;28;20980;-63
2021/10/27 13:19:47;;;;;;;23.03;22.03;;;23.30;68.00;;;;;;5051249;28;20438;-64
2021/10/27 13:22:26;;;;;;;22.17;21.00;;;23.00;71.10;;;;;;5050650;28;20502;-64
2021/10/27 13:30:29;;;;;;;21.77;20.83;;;23.00;73.20;;;;;;5051355;28;20502;-64
2021/10/27 13:32:59;;;;;;;21.60;20.63;;;23.20;71.40;;;;;;5051396;28;20514;-63
2021/10/27 13:35:25;;;;;;;22.00;21.10;;;23.00;73.50;;;;;;5051545;28;20447;-64
2021/10/27 13:37:52;;;;;;;23.10;21.50;;;23.80;73.40;;;;;;5051102;28;20448;-63
2021/10/27 13:40:19;;;;;;;21.50;20.77;;;23.60;70.50;;;;;;5051430;28;20451;-64
2021/10/27 13:42:52;;;;;;;20.93;20.20;;;23.40;70.80;;;;;;5051403;28;20555;-64
2021/10/27 13:45:23;;;;;;;21.20;20.50;;;22.70;72.40;;;;;;5051403;28;20478;-62
2021/10/27 13:48:01;;;;;;;22.00;21.00;;;22.20;74.60;;;;;;5048868;28;20519;-64
2021/10/27 13:59:07;;;;;;;20.60;19.80;;;21.60;81.00;;;;;;5038587;28;21023;-64
2021/10/27 14:07:08;;;;;;;22.20;21.20;;;24.00;71.90;;;;;;5029495;28;20914;-64
2021/10/27 14:09:39;;;;;;;21.60;20.60;;;23.80;72.00;;;;;;5035916;28;20815;-63
2021/10/27 14:12:18;;;;;;;21.50;20.60;;;24.20;71.20;;;;;;5031449;28;20440;-63
2021/10/27 14:14:56;;;;;;;20.43;19.43;;;24.10;70.50;;;;;;5030952;28;20845;-64
2021/10/27 14:17:52;;;;;;;21.03;20.13;;;23.40;72.20;;;;;;5034992;28;20942;-63
2021/10/27 14:39:59;;;;;;;22.53;21.53;;;23.10;75.20;;;;;;5054208;28;20427;-63
2021/10/27 14:48:13;;;;;;;20.93;20.23;;;22.30;79.00;;;;;;5013452;28;20437;-63
2021/10/27 14:51:05;;;;;;;21.83;20.90;;;22.00;80.10;;;;;;5034393;28;20444;-64
2021/10/27 14:59:19;;;;;;;21.77;20.87;;;21.10;85.50;;;;;;5054083;28;20447;-64
2021/10/27 15:24:15;;;;;;;22.63;20.93;;;19.40;98.60;;;;;;5035663;28;20514;-64
2021/10/27 15:29:45;;;;;;;20.80;20.00;;;19.00;99.90;;;;;;5033810;28;20893;-64
2021/10/27 15:32:32;;;;;;;20.93;20.13;;;19.00;99.90;;;;;;5038305;28;21003;-64
2021/10/27 15:35:05;;;;;;;21.33;20.13;;;18.80;99.90;;;;;;5053490;28;20527;-64
2021/10/27 15:40:38;;;;;;;20.40;19.50;;;18.60;99.90;;;;;;5053699;28;20431;-64
2021/10/27 15:43:16;;;;;;;19.87;19.17;;;18.40;99.90;;;;;;5041416;28;20476;-64
2021/10/27 15:51:08;;;;;;;20.23;19.43;;;18.00;99.90;;;;;;5033321;28;20440;-63
2021/10/27 15:53:37;;;;;;;20.43;19.63;;;17.90;99.90;;;;;;5048316;28;20475;-64
2021/10/27 15:56:05;;;;;;;20.27;19.47;;;17.80;99.90;;;;;;5053128;28;20431;-64
2021/10/27 15:58:32;;;;;;;20.40;19.57;;;17.70;99.90;;;;;;5053060;28;20459;-63
2021/10/27 16:00:58;;;;;;;21.43;20.33;;;17.60;99.90;;;;;;5053116;28;20444;-64
2021/10/27 16:03:25;;;;;;;20.60;19.67;;;17.60;99.90;;;;;;5038682;28;20457;-63
2021/10/27 16:05:55;;;;;;;20.07;19.10;;;17.30;99.90;;;;;;5032416;28;20520;-64
2021/10/27 16:08:24;;;;;;;19.87;18.87;;;17.20;99.90;;;;;;5032330;28;20819;-64
2021/10/27 16:10:52;;;;;;;18.90;18.00;;;17.00;99.90;;;;;;5038363;28;20536;-64